Time;durP1;ratioP1;P1;durP2;ratioP2;P2;SDS_P1;SDS_P2;PMS_P1;PMS_P2;Temp;Humidity;BMP_temperature;BMP_pressure;BME280_temperature;BME280_humidity;BME280_pressure;Samples;Min_cycle;Max_cycle;Signal;HPM_P1;HPM_P2
2023/09/19 00:00:24;;;;;;;9.15;3.85;;;564.10;2329.60;;;;;;5012459;28;20116;-73
2023/09/19 00:03:01;;;;;;;6.68;3.97;;;564.00;2304.00;;;;;;5032827;28;20832;-73
2023/09/19 00:05:27;;;;;;;;;;;588.90;2329.60;;;;;;5024105;28;20459;-73
2023/09/19 00:07:54;;;;;;;11.13;4.53;;;588.80;2329.60;;;;;;5023198;28;19989;-73
2023/09/19 00:10:24;;;;;;;9.82;3.72;;;588.80;2329.60;;;;;;5033040;28;20037;-73
2023/09/19 00:12:52;;;;;;;6.45;4.32;;;588.80;2329.60;;;;;;5034489;28;20014;-73
2023/09/19 00:15:18;;;;;;;8.32;4.90;;;588.80;2304.00;;;;;;5034440;28;20018;-73
2023/09/19 00:17:44;;;;;;;12.55;4.78;;;588.80;2304.00;;;;;;5034410;28;20075;-72
2023/09/19 00:20:13;;;;;;;7.35;4.43;;;588.90;2304.00;;;;;;5016297;28;20045;-75
2023/09/19 00:22:42;;;;;;;11.95;4.93;;;588.90;2304.00;;;;;;5033940;28;20022;-73
2023/09/19 00:25:09;;;;;;;6.65;3.97;;;588.90;2304.00;;;;;;5034125;28;20021;-72
2023/09/19 00:27:41;;;;;;;10.20;4.07;;;588.90;2278.40;;;;;;5034227;28;20100;-73
2023/09/19 00:30:14;;;;;;;7.18;4.43;;;588.90;2278.40;;;;;;5033946;28;20026;-73
2023/09/19 00:32:41;;;;;;;10.55;4.78;;;588.90;2278.40;;;;;;5022041;28;20014;-73
2023/09/19 00:35:09;;;;;;;7.03;3.75;;;589.00;2278.40;;;;;;5033861;28;20527;-72
2023/09/19 00:37:35;;;;;;;15.20;4.22;;;588.90;2278.40;;;;;;5033993;28;20026;-72
2023/09/19 00:40:03;;;;;;;8.85;4.38;;;588.90;2278.40;;;;;;5033658;28;20029;-73
2023/09/19 00:42:28;;;;;;;6.07;4.07;;;588.90;2278.40;;;;;;5015869;28;20398;-73
2023/09/19 00:44:54;;;;;;;8.52;4.68;;;588.90;2252.80;;;;;;5033731;28;20022;-73
2023/09/19 00:47:20;;;;;;;9.75;4.95;;;588.90;2252.80;;;;;;5033619;28;20167;-73
2023/09/19 00:49:49;;;;;;;6.93;4.80;;;588.90;2252.80;;;;;;5033445;28;20084;-73
2023/09/19 00:52:15;;;;;;;8.43;4.72;;;588.90;2278.40;;;;;;5033638;28;20025;-72
2023/09/19 00:54:41;;;;;;;11.98;4.85;;;588.90;2278.40;;;;;;5033485;28;20029;-73
2023/09/19 00:57:08;;;;;;;10.25;5.22;;;588.90;2278.40;;;;;;5033849;28;20143;-72
2023/09/19 00:59:35;;;;;;;8.18;4.57;;;588.80;2278.40;;;;;;5018354;28;20021;-72
2023/09/19 01:02:02;;;;;;;7.07;4.97;;;588.80;2278.40;;;;;;5019190;28;20029;-72
2023/09/19 01:04:28;;;;;;;10.32;4.82;;;564.10;2278.40;;;;;;5033384;28;20034;-73
2023/09/19 01:06:55;;;;;;;7.30;5.13;;;564.10;2278.40;;;;;;5033185;28;20028;-72
2023/09/19 01:09:21;;;;;;;11.00;4.82;;;564.10;2304.00;;;;;;5033124;28;20099;-73
2023/09/19 01:11:51;;;;;;;9.38;5.20;;;564.10;2304.00;;;;;;5033284;28;20033;-72
2023/09/19 01:14:57;;;;;;;14.05;5.65;;;564.10;2304.00;;;;;;5033196;28;20075;-73
2023/09/19 01:17:27;;;;;;;9.45;5.53;;;564.10;2304.00;;;;;;5021640;28;20041;-73
2023/09/19 01:20:19;;;;;;;12.70;4.60;;;564.10;2304.00;;;;;;5032539;28;20073;-73
2023/09/19 01:23:23;;;;;;;13.80;5.25;;;564.10;2304.00;;;;;;5032822;28;20064;-74
2023/09/19 01:26:10;;;;;;;8.85;5.10;;;564.10;2304.00;;;;;;4957793;28;20023;-73
2023/09/19 01:29:01;;;;;;;8.90;4.82;;;564.10;2304.00;;;;;;4957944;28;20035;-73
2023/09/19 01:31:35;;;;;;;7.03;4.68;;;564.10;2304.00;;;;;;4953111;29;20078;-72
2023/09/19 01:34:04;;;;;;;12.05;4.50;;;564.10;2304.00;;;;;;4952896;29;20484;-73
2023/09/19 01:36:36;;;;;;;8.77;5.22;;;588.90;2304.00;;;;;;4953166;29;20043;-72
2023/09/19 01:39:10;;;;;;;8.25;5.00;;;564.00;2304.00;;;;;;4952910;29;20031;-73
2023/09/19 01:42:03;;;;;;;8.05;4.78;;;564.10;2304.00;;;;;;4952590;29;20843;-72
2023/09/19 01:44:44;;;;;;;8.77;5.10;;;564.10;2304.00;;;;;;4952671;29;20039;-72
2023/09/19 01:47:25;;;;;;;8.38;4.82;;;564.10;2304.00;;;;;;4952547;29;20106;-72
2023/09/19 01:50:18;;;;;;;8.82;4.43;;;564.10;2304.00;;;;;;4952250;29;20047;-72
2023/09/19 01:52:57;;;;;;;7.53;4.90;;;564.10;2304.00;;;;;;4895782;29;20045;-73
2023/09/19 01:55:26;;;;;;;9.80;5.50;;;564.10;2304.00;;;;;;4896081;29;20084;-72
2023/09/19 01:58:12;;;;;;;13.25;5.13;;;564.10;2304.00;;;;;;4966071;28;20078;-73
2023/09/19 02:00:40;;;;;;;9.02;5.32;;;564.10;2304.00;;;;;;4972163;28;20023;-72
2023/09/19 02:03:07;;;;;;;10.23;5.05;;;564.10;2304.00;;;;;;4971916;28;20062;-72
2023/09/19 02:05:33;;;;;;;7.60;5.13;;;564.10;2304.00;;;;;;4971964;28;20027;-72
2023/09/19 02:07:58;;;;;;;10.20;4.97;;;564.10;2304.00;;;;;;4971848;28;20435;-73
2023/09/19 02:10:24;;;;;;;13.23;5.38;;;564.10;2304.00;;;;;;4971841;28;20057;-72
2023/09/19 02:12:51;;;;;;;11.88;4.75;;;564.10;2278.40;;;;;;4971842;28;20023;-72
2023/09/19 02:15:16;;;;;;;11.30;5.78;;;564.10;2278.40;;;;;;4971934;28;20030;-72
2023/09/19 02:17:44;;;;;;;12.07;5.95;;;564.10;2278.40;;;;;;4971907;28;20027;-72
2023/09/19 02:20:14;;;;;;;13.13;5.95;;;564.10;2304.00;;;;;;4971733;28;20083;-72
2023/09/19 02:22:44;;;;;;;10.85;6.35;;;564.10;2278.40;;;;;;4971483;28;20381;-72
2023/09/19 02:25:10;;;;;;;14.50;6.28;;;564.10;2278.40;;;;;;4971967;28;20054;-74
2023/09/19 02:27:37;;;;;;;13.18;6.38;;;564.10;2278.40;;;;;;4971888;28;20026;-74
2023/09/19 02:30:03;;;;;;;12.07;5.40;;;564.10;2304.00;;;;;;4998457;28;20088;-72
2023/09/19 02:32:31;;;;;;;12.77;5.97;;;564.10;2329.60;;;;;;5016197;28;20022;-74
2023/09/19 02:34:58;;;;;;;12.27;5.55;;;564.00;2329.60;;;;;;5016628;28;20018;-73
2023/09/19 02:37:23;;;;;;;11.43;5.93;;;564.00;2304.00;;;;;;5016526;28;20474;-72
2023/09/19 02:39:49;;;;;;;8.93;5.10;;;563.90;2304.00;;;;;;5016004;28;20033;-72
2023/09/19 02:42:15;;;;;;;12.48;5.82;;;563.90;2329.60;;;;;;5016195;28;20117;-72
2023/09/19 02:44:41;;;;;;;8.30;5.38;;;563.90;2304.00;;;;;;5016495;28;20022;-72
2023/09/19 02:47:06;;;;;;;9.00;5.68;;;564.00;2304.00;;;;;;5015921;28;20065;-73
2023/09/19 02:49:32;;;;;;;8.52;4.93;;;564.00;2304.00;;;;;;5016213;28;20049;-73
2023/09/19 02:51:59;;;;;;;10.68;5.53;;;564.00;2304.00;;;;;;5016010;28;20022;-72
2023/09/19 02:54:25;;;;;;;10.00;5.05;;;564.00;2329.60;;;;;;5016095;28;20076;-72
2023/09/19 02:56:50;;;;;;;11.18;5.00;;;563.90;2329.60;;;;;;5015991;28;20394;-71
2023/09/19 02:59:16;;;;;;;8.82;5.40;;;563.80;2355.20;;;;;;5014807;28;20030;-73
2023/09/19 03:01:47;;;;;;;10.30;5.90;;;563.80;2355.20;;;;;;5016026;28;20025;-73
2023/09/19 03:04:19;;;;;;;10.32;6.10;;;563.80;2380.80;;;;;;5016002;28;20022;-73
2023/09/19 03:06:46;;;;;;;8.55;5.25;;;563.70;2380.80;;;;;;5014914;28;20018;-72
2023/09/19 03:09:11;;;;;;;14.77;6.70;;;563.70;2406.40;;;;;;5015394;28;20205;-73
2023/09/19 03:11:39;;;;;;;12.23;5.95;;;563.60;2432.00;;;;;;5015978;28;20101;-72
2023/09/19 03:14:05;;;;;;;13.05;6.32;;;563.50;2432.00;;;;;;5015907;28;20022;-72
2023/09/19 03:16:31;;;;;;;12.13;5.82;;;563.30;2432.00;;;;;;5015908;28;20026;-73
2023/09/19 03:18:59;;;;;;;12.35;5.93;;;563.20;2432.00;;;;;;5015438;28;20029;-72
2023/09/19 03:21:25;;;;;;;10.60;6.28;;;538.30;2406.40;;;;;;5032566;28;20046;-73
2023/09/19 03:23:51;;;;;;;10.65;6.20;;;538.20;2406.40;;;;;;5035108;28;20040;-72
2023/09/19 03:26:17;;;;;;;8.85;5.40;;;538.10;2406.40;;;;;;5035364;28;20096;-73
2023/09/19 03:28:43;;;;;;;10.90;5.78;;;538.00;2406.40;;;;;;5034831;28;20053;-73
2023/09/19 03:31:10;;;;;;;14.32;5.28;;;538.00;2406.40;;;;;;5035140;28;20029;-74
2023/09/19 03:33:36;;;;;;;13.63;6.35;;;538.10;2406.40;;;;;;5034711;28;20029;-72
2023/09/19 03:36:04;;;;;;;7.60;5.25;;;538.20;2406.40;;;;;;5035197;28;20080;-76
2023/09/19 03:38:32;;;;;;;9.73;5.03;;;538.20;2406.40;;;;;;5034776;28;20018;-72
2023/09/19 03:40:57;;;;;;;14.32;6.57;;;538.20;2406.40;;;;;;5034643;28;20022;-71
2023/09/19 03:43:23;;;;;;;9.65;5.22;;;538.30;2406.40;;;;;;5034719;28;20538;-75
2023/09/19 03:45:50;;;;;;;11.43;6.50;;;538.30;2406.40;;;;;;5034731;28;20071;-73
2023/09/19 03:48:16;;;;;;;9.93;5.38;;;538.30;2406.40;;;;;;5034832;28;20013;-73
2023/09/19 03:50:43;;;;;;;10.10;5.47;;;538.40;2406.40;;;;;;5034644;28;20029;-73
2023/09/19 03:53:09;;;;;;;11.63;5.47;;;538.40;2406.40;;;;;;5034981;28;20025;-72
2023/09/19 03:55:35;;;;;;;11.30;5.82;;;538.50;2406.40;;;;;;5035185;28;20033;-72
2023/09/19 03:58:01;;;;;;;13.38;5.55;;;538.50;2406.40;;;;;;5015803;28;20616;-72
2023/09/19 04:00:29;;;;;;;7.88;5.30;;;538.50;2406.40;;;;;;5034488;28;20100;-75
2023/09/19 04:02:56;;;;;;;12.23;5.45;;;538.50;2406.40;;;;;;5034560;28;20480;-73
2023/09/19 04:05:23;;;;;;;9.32;5.10;;;538.50;2406.40;;;;;;5034427;28;20103;-72
2023/09/19 04:07:49;;;;;;;9.73;5.13;;;563.20;2432.00;;;;;;5034311;28;20028;-72
2023/09/19 04:10:16;;;;;;;8.10;5.72;;;563.20;2432.00;;;;;;5034183;28;20481;-72
2023/09/19 04:12:52;;;;;;;10.27;5.50;;;563.20;2432.00;;;;;;5034430;28;20017;-72
2023/09/19 04:15:17;;;;;;;8.20;5.47;;;563.20;2432.00;;;;;;5028556;28;20025;-72
2023/09/19 04:17:43;;;;;;;12.07;5.03;;;563.20;2432.00;;;;;;5021816;28;20034;-71
2023/09/19 04:20:12;;;;;;;12.23;5.95;;;563.30;2432.00;;;;;;5024959;28;20501;-72
2023/09/19 04:22:39;;;;;;;9.77;5.35;;;563.30;2432.00;;;;;;5027159;28;20022;-71
2023/09/19 04:25:06;;;;;;;6.55;4.78;;;563.30;2432.00;;;;;;5019900;28;20030;-71
2023/09/19 04:27:32;;;;;;;8.75;4.97;;;563.30;2432.00;;;;;;5028204;28;20556;-72
2023/09/19 04:29:59;;;;;;;8.88;5.63;;;563.30;2432.00;;;;;;5026744;28;20025;-72
2023/09/19 04:32:35;;;;;;;10.20;5.72;;;563.30;2432.00;;;;;;5026808;28;20018;-72
2023/09/19 04:35:05;;;;;;;11.00;5.82;;;563.30;2432.00;;;;;;5027368;28;20082;-72
2023/09/19 04:37:32;;;;;;;8.23;6.25;;;563.30;2432.00;;;;;;5025546;28;20057;-72
2023/09/19 04:39:58;;;;;;;10.57;5.88;;;563.30;2432.00;;;;;;5018749;28;20032;-73
2023/09/19 04:42:25;;;;;;;11.57;5.90;;;563.30;2432.00;;;;;;5027491;28;20022;-72
2023/09/19 04:44:54;;;;;;;11.50;5.47;;;563.30;2432.00;;;;;;5021095;28;20363;-72
2023/09/19 04:47:22;;;;;;;11.68;5.45;;;563.40;2432.00;;;;;;5026563;28;20017;-72
2023/09/19 04:49:47;;;;;;;10.18;5.50;;;563.30;2432.00;;;;;;5022031;28;20128;-73
2023/09/19 04:52:15;;;;;;;8.88;6.00;;;563.30;2432.00;;;;;;5020522;28;20462;-73
2023/09/19 04:54:41;;;;;;;14.15;6.10;;;563.40;2432.00;;;;;;5024168;28;20029;-72
2023/09/19 04:57:07;;;;;;;10.63;5.68;;;563.50;2432.00;;;;;;5023046;28;20470;-75
2023/09/19 04:59:32;;;;;;;10.20;5.38;;;563.50;2432.00;;;;;;5023266;28;20036;-73
2023/09/19 05:01:58;;;;;;;10.15;6.22;;;563.50;2432.00;;;;;;5027417;28;20487;-71
2023/09/19 05:04:24;;;;;;;17.45;6.25;;;563.50;2432.00;;;;;;5025824;28;20053;-71
2023/09/19 05:06:50;;;;;;;12.35;6.03;;;563.50;2432.00;;;;;;5018786;28;20045;-73
2023/09/19 05:09:19;;;;;;;11.65;5.50;;;563.50;2432.00;;;;;;5019608;28;20025;-72
2023/09/19 05:11:46;;;;;;;10.02;5.30;;;563.40;2432.00;;;;;;5022768;28;20025;-72
2023/09/19 05:14:11;;;;;;;9.48;5.20;;;563.40;2432.00;;;;;;5026266;28;20097;-72
2023/09/19 05:16:37;;;;;;;11.55;5.88;;;563.40;2432.00;;;;;;5019654;28;20112;-72
2023/09/19 05:19:03;;;;;;;16.58;6.30;;;563.40;2432.00;;;;;;5025949;28;20029;-72
2023/09/19 05:21:30;;;;;;;10.93;5.97;;;563.40;2432.00;;;;;;5023417;28;20056;-73
2023/09/19 05:23:56;;;;;;;17.27;6.57;;;563.50;2432.00;;;;;;5022602;28;20386;-73
2023/09/19 05:26:22;;;;;;;10.38;5.70;;;563.40;2432.00;;;;;;5019724;28;20040;-73
2023/09/19 05:28:48;;;;;;;10.05;6.10;;;563.40;2432.00;;;;;;5019954;28;20537;-72
2023/09/19 05:31:15;;;;;;;10.65;5.43;;;563.50;2432.00;;;;;;5018591;28;20030;-71
2023/09/19 05:33:41;;;;;;;12.77;5.15;;;563.50;2432.00;;;;;;5010137;28;20090;-74
2023/09/19 05:36:07;;;;;;;9.55;4.55;;;563.50;2432.00;;;;;;5023908;28;20053;-73
2023/09/19 05:38:33;;;;;;;10.73;5.50;;;563.60;2432.00;;;;;;5023927;28;20032;-72
2023/09/19 05:40:58;;;;;;;12.32;5.30;;;563.70;2432.00;;;;;;5021258;28;20018;-72
2023/09/19 05:43:24;;;;;;;8.88;5.82;;;563.70;2432.00;;;;;;5023149;28;20537;-73
2023/09/19 05:45:51;;;;;;;9.23;5.95;;;563.80;2432.00;;;;;;5020466;28;20026;-74
2023/09/19 05:48:17;;;;;;;7.55;5.43;;;563.80;2406.40;;;;;;5017607;28;20410;-73
2023/09/19 05:50:44;;;;;;;9.15;5.03;;;563.80;2432.00;;;;;;5019884;28;20072;-77
2023/09/19 05:53:14;;;;;;;14.27;6.68;;;563.90;2406.40;;;;;;5019804;28;20025;-72
2023/09/19 05:55:40;;;;;;;7.60;5.40;;;563.90;2406.40;;;;;;5008852;28;20084;-73
2023/09/19 05:58:07;;;;;;;8.32;5.60;;;564.00;2406.40;;;;;;5023236;28;20024;-76
2023/09/19 06:00:32;;;;;;;9.15;5.63;;;564.00;2406.40;;;;;;5018357;28;20072;-71
2023/09/19 06:02:59;;;;;;;9.35;5.10;;;564.10;2380.80;;;;;;5022485;28;20025;-75
2023/09/19 06:05:30;;;;;;;6.65;5.00;;;564.10;2380.80;;;;;;5015165;28;20434;-76
2023/09/19 06:07:59;;;;;;;11.75;5.93;;;564.10;2380.80;;;;;;5024764;28;20029;-73
2023/09/19 06:10:27;;;;;;;10.18;5.00;;;588.80;2329.60;;;;;;5025060;28;20433;-74
2023/09/19 06:12:55;;;;;;;10.18;5.97;;;588.80;2329.60;;;;;;5011698;28;20374;-74
2023/09/19 06:15:23;;;;;;;7.78;5.00;;;588.90;2355.20;;;;;;5024206;28;20037;-74
2023/09/19 06:17:50;;;;;;;12.38;5.20;;;588.90;2329.60;;;;;;5026161;28;20014;-73
2023/09/19 06:20:19;;;;;;;6.90;5.32;;;589.00;2304.00;;;;;;5027768;28;20095;-74
2023/09/19 06:22:46;;;;;;;9.02;5.85;;;589.20;2304.00;;;;;;5030426;28;20032;-74
2023/09/19 06:25:18;;;;;;;8.75;5.47;;;589.30;2304.00;;;;;;5022828;28;20022;-74
2023/09/19 06:27:48;;;;;;;8.13;5.32;;;589.30;2278.40;;;;;;5029050;28;20017;-74
2023/09/19 06:30:14;;;;;;;9.38;5.82;;;589.40;2278.40;;;;;;5023009;28;20037;-74
2023/09/19 06:32:46;;;;;;;10.57;5.15;;;589.50;2252.80;;;;;;5027877;28;20054;-74
2023/09/19 06:35:17;;;;;;;11.65;5.30;;;589.70;2227.20;;;;;;5027426;28;20036;-74
2023/09/19 06:37:43;;;;;;;12.10;5.68;;;614.60;2176.00;;;;;;5026755;28;20025;-74
2023/09/19 06:40:13;;;;;;;11.43;5.40;;;614.80;2176.00;;;;;;5029405;28;20036;-73
2023/09/19 06:42:45;;;;;;;8.00;5.22;;;615.00;2150.40;;;;;;5027389;28;20080;-73
2023/09/19 06:45:13;;;;;;;9.88;5.93;;;615.00;2124.80;;;;;;5009856;28;20072;-72
2023/09/19 06:47:39;;;;;;;9.95;4.80;;;615.10;2124.80;;;;;;5026577;28;20101;-71
2023/09/19 06:50:06;;;;;;;9.05;4.75;;;615.30;2099.20;;;;;;5027467;28;20108;-71
2023/09/19 06:52:33;;;;;;;9.65;5.63;;;615.20;2073.60;;;;;;5029016;28;20020;-72
2023/09/19 06:54:58;;;;;;;12.32;5.25;;;615.10;2099.20;;;;;;5029648;28;20025;-72
2023/09/19 06:57:24;;;;;;;9.93;5.28;;;615.10;2099.20;;;;;;5027906;28;20481;-72
2023/09/19 06:59:50;;;;;;;10.90;5.70;;;615.30;2099.20;;;;;;5025240;28;20036;-72
2023/09/19 07:02:16;;;;;;;9.85;5.90;;;640.20;2073.60;;;;;;5023260;28;20020;-72
2023/09/19 07:04:42;;;;;;;10.85;5.57;;;640.60;2048.00;;;;;;5023954;28;20025;-72
2023/09/19 07:07:13;;;;;;;12.02;5.35;;;640.60;2048.00;;;;;;5028257;28;20021;-73
2023/09/19 07:09:39;;;;;;;10.35;5.45;;;640.50;2048.00;;;;;;5019289;28;20509;-72
2023/09/19 07:12:05;;;;;;;10.70;5.60;;;640.40;2048.00;;;;;;5023518;28;20021;-72
2023/09/19 07:14:32;;;;;;;12.75;5.45;;;640.20;2048.00;;;;;;5024586;28;20036;-73
2023/09/19 07:16:59;;;;;;;12.60;5.68;;;640.10;2048.00;;;;;;5026822;28;20057;-73
2023/09/19 07:19:28;;;;;;;14.50;5.68;;;640.20;2048.00;;;;;;5029076;28;20100;-73
2023/09/19 07:21:54;;;;;;;11.05;5.28;;;640.20;2073.60;;;;;;5027069;28;20040;-72
2023/09/19 07:24:22;;;;;;;13.00;6.70;;;640.40;2073.60;;;;;;5027082;28;20018;-74
2023/09/19 07:26:48;;;;;;;9.20;5.25;;;640.60;2048.00;;;;;;5024303;28;20116;-73
2023/09/19 07:29:14;;;;;;;12.95;5.05;;;665.60;2022.40;;;;;;5027756;28;20578;-73
2023/09/19 07:31:39;;;;;;;8.02;5.45;;;665.90;1996.80;;;;;;5019854;28;20017;-73
2023/09/19 07:34:06;;;;;;;13.40;5.88;;;665.90;1971.20;;;;;;5029794;28;20115;-73
2023/09/19 07:36:34;;;;;;;13.68;5.88;;;665.90;1971.20;;;;;;5025089;28;20375;-73
2023/09/19 07:39:00;;;;;;;8.13;5.25;;;665.90;1971.20;;;;;;5025068;28;20398;-73
2023/09/19 07:41:25;;;;;;;11.70;5.63;;;666.10;1971.20;;;;;;5022486;28;20022;-73
2023/09/19 07:43:52;;;;;;;12.57;5.97;;;666.10;1945.60;;;;;;5028597;28;20028;-73
2023/09/19 07:46:18;;;;;;;15.20;6.10;;;666.30;1945.60;;;;;;5024597;28;20071;-73
2023/09/19 07:48:48;;;;;;;20.35;5.90;;;666.50;1945.60;;;;;;5024702;28;20026;-72
2023/09/19 07:51:15;;;;;;;12.82;5.40;;;691.30;1894.40;;;;;;5024538;28;20033;-76
2023/09/19 07:53:42;;;;;;;8.93;5.60;;;691.30;1894.40;;;;;;5024364;28;20020;-71
2023/09/19 07:56:09;;;;;;;11.18;5.45;;;691.50;1868.80;;;;;;5027624;28;20021;-73
2023/09/19 07:58:37;;;;;;;11.85;5.50;;;691.60;1868.80;;;;;;5029512;28;20465;-72
2023/09/19 08:01:06;;;;;;;11.82;5.97;;;691.60;1868.80;;;;;;5024585;28;20144;-72
2023/09/19 08:03:34;;;;;;;15.30;5.95;;;691.70;1868.80;;;;;;5029434;28;20026;-72
2023/09/19 08:06:00;;;;;;;13.02;6.80;;;691.90;1843.20;;;;;;5025484;28;20022;-72
2023/09/19 08:08:26;;;;;;;9.98;5.50;;;716.80;1843.20;;;;;;5022667;28;20029;-74
2023/09/19 08:10:58;;;;;;;9.35;5.50;;;717.00;1843.20;;;;;;5024332;28;20060;-73
2023/09/19 08:13:25;;;;;;;12.38;6.47;;;717.00;1817.60;;;;;;5020432;28;20026;-74
2023/09/19 08:15:53;;;;;;;9.98;6.28;;;717.30;1817.60;;;;;;5026304;28;20056;-74
2023/09/19 08:18:21;;;;;;;11.13;4.90;;;717.50;1792.00;;;;;;5024252;28;20067;-73
2023/09/19 08:20:53;;;;;;;11.27;5.68;;;717.50;1792.00;;;;;;5021589;28;20049;-73
2023/09/19 08:23:21;;;;;;;13.45;5.45;;;717.70;1740.80;;;;;;5025600;28;20041;-71
2023/09/19 08:25:47;;;;;;;9.98;6.07;;;717.70;1766.40;;;;;;5020138;28;20098;-72
2023/09/19 08:28:18;;;;;;;12.90;5.88;;;;;;;;;;5024844;28;20101;-73
2023/09/19 08:30:44;;;;;;;12.27;5.30;;;;;;;;;;5021850;28;20038;-72
2023/09/19 08:33:10;;;;;;;15.70;6.47;;;742.60;1766.40;;;;;;5027715;28;20036;-71
2023/09/19 08:35:37;;;;;;;18.05;6.93;;;742.50;1792.00;;;;;;5022285;28;20470;-72
2023/09/19 08:38:04;;;;;;;11.23;5.88;;;742.40;1792.00;;;;;;5024202;28;20029;-72
2023/09/19 08:40:38;;;;;;;10.68;5.25;;;717.30;1766.40;;;;;;5014552;28;20417;-72
2023/09/19 08:43:04;;;;;;;17.67;6.03;;;717.10;1766.40;;;;;;5028964;28;20029;-73
2023/09/19 08:45:31;;;;;;;12.55;6.28;;;717.10;1817.60;;;;;;5028657;28;20018;-72
2023/09/19 08:48:28;;;;;;;9.20;5.55;;;716.90;1817.60;;;;;;5021474;28;20037;-72
2023/09/19 08:51:35;;;;;;;11.00;5.15;;;716.90;1817.60;;;;;;5023217;28;20037;-71
2023/09/19 08:54:07;;;;;;;9.70;5.55;;;717.10;1792.00;;;;;;5025323;28;20033;-72
2023/09/19 08:56:33;;;;;;;12.18;6.13;;;717.50;1792.00;;;;;;5024432;28;20478;-72
2023/09/19 08:59:09;;;;;;;18.27;5.90;;;742.40;1766.40;;;;;;5023141;28;20483;-72
2023/09/19 09:01:36;;;;;;;12.82;6.18;;;742.50;1740.80;;;;;;5009123;28;20029;-72
2023/09/19 09:04:02;;;;;;;12.10;6.15;;;742.70;1740.80;;;;;;5014981;28;20029;-73
2023/09/19 09:06:29;;;;;;;11.63;6.95;;;742.70;1740.80;;;;;;5023160;28;20410;-73
2023/09/19 09:08:55;;;;;;;14.18;5.70;;;742.50;1740.80;;;;;;5023639;28;20022;-73
2023/09/19 09:11:23;;;;;;;12.32;5.50;;;742.40;1766.40;;;;;;5019496;28;20034;-73
2023/09/19 09:13:49;;;;;;;13.75;6.30;;;742.40;1766.40;;;;;;5020892;28;20018;-74
2023/09/19 09:16:18;;;;;;;16.00;6.40;;;742.70;1766.40;;;;;;5023919;28;20417;-73
2023/09/19 09:18:45;;;;;;;12.25;6.63;;;743.00;1740.80;;;;;;5021411;28;20072;-74
2023/09/19 09:21:14;;;;;;;11.60;6.10;;;743.10;1715.20;;;;;;5022736;28;20060;-72
2023/09/19 09:23:40;;;;;;;13.57;6.07;;;768.30;1715.20;;;;;;5020920;28;20484;-74
2023/09/19 09:26:07;;;;;;;12.63;6.22;;;768.30;1689.60;;;;;;5022192;28;20037;-73
2023/09/19 09:28:35;;;;;;;13.57;5.95;;;768.40;1715.20;;;;;;5023335;28;20370;-73
2023/09/19 09:31:12;;;;;;;11.77;6.28;;;768.20;1689.60;;;;;;5027742;28;20033;-71
2023/09/19 09:33:39;;;;;;;19.83;6.85;;;743.30;1715.20;;;;;;5022026;28;20023;-71
2023/09/19 09:36:06;;;;;;;14.68;6.82;;;743.20;1740.80;;;;;;5025053;28;20029;-71
2023/09/19 09:38:55;;;;;;;16.63;7.88;;;768.20;1715.20;;;;;;5026755;28;20029;-72
2023/09/19 09:41:37;;;;;;;13.88;6.45;;;;;;;;;;5019776;28;20029;-72
2023/09/19 09:44:15;;;;;;;14.32;7.30;;;768.70;1664.00;;;;;;5025049;28;20022;-71
2023/09/19 09:49:32;;;;;;;13.90;6.43;;;;;;;;;;5019307;28;20057;-72
2023/09/19 09:52:16;;;;;;;20.73;7.28;;;;;;;;;;5023808;28;20413;-72
2023/09/19 09:54:58;;;;;;;11.45;5.88;;;;;;;;;;5020213;28;20107;-72
2023/09/19 09:57:25;;;;;;;18.77;7.03;;;794.20;1612.80;;;;;;5022327;28;20068;-72
2023/09/19 09:59:58;;;;;;;14.13;6.57;;;794.50;1587.20;;;;;;5022187;28;20036;-72
2023/09/19 10:02:36;;;;;;;24.95;7.38;;;;;;;;;;5025137;28;20018;-72
2023/09/19 10:07:53;;;;;;;;;;;819.30;1561.60;;;;;;5021697;28;20382;-72
2023/09/19 10:13:12;;;;;;;13.65;5.38;;;819.30;1587.20;;;;;;5023772;28;20481;-72
2023/09/19 10:15:40;;;;;;;14.52;6.80;;;819.60;1561.60;;;;;;5022877;28;20466;-73
2023/09/19 10:18:09;;;;;;;12.32;6.18;;;819.90;1510.40;;;;;;5025425;28;20021;-72
2023/09/19 10:20:38;;;;;;;16.50;6.57;;;819.80;1561.60;;;;;;5022353;28;20052;-72
2023/09/19 10:23:12;;;;;;;12.85;7.38;;;819.80;1536.00;;;;;;5022485;28;20088;-71
2023/09/19 10:25:42;;;;;;;14.13;6.70;;;819.80;1536.00;;;;;;5021823;28;20057;-71
2023/09/19 10:28:13;;;;;;;15.85;6.93;;;819.60;1536.00;;;;;;5023536;28;20496;-71
2023/09/19 10:30:45;;;;;;;13.93;6.20;;;819.80;1536.00;;;;;;5025078;28;20103;-73
2023/09/19 10:33:15;;;;;;;15.55;6.82;;;819.70;1536.00;;;;;;5018760;28;20121;-71
2023/09/19 10:35:44;;;;;;;18.08;7.10;;;819.80;1510.40;;;;;;5020907;28;20022;-74
2023/09/19 10:38:11;;;;;;;18.42;6.78;;;844.90;1510.40;;;;;;5026336;28;20093;-72
2023/09/19 10:40:42;;;;;;;13.55;6.68;;;844.90;1510.40;;;;;;5021323;28;20113;-72
2023/09/19 10:43:12;;;;;;;24.48;7.10;;;844.90;1510.40;;;;;;5022031;28;20025;-71
2023/09/19 10:45:40;;;;;;;18.90;6.45;;;820.10;1510.40;;;;;;5022694;28;20072;-71
2023/09/19 10:48:07;;;;;;;17.10;6.55;;;844.90;1484.80;;;;;;5020708;28;20057;-73
2023/09/19 10:51:09;;;;;;;19.10;6.20;;;819.80;1510.40;;;;;;5024665;28;20108;-72
2023/09/19 10:54:00;;;;;;;24.65;6.88;;;819.80;1510.40;;;;;;5021558;28;20385;-74
2023/09/19 10:56:37;;;;;;;15.32;6.70;;;819.70;1536.00;;;;;;5023692;28;20092;-73
2023/09/19 10:59:14;;;;;;;12.93;6.30;;;819.60;1510.40;;;;;;5022791;28;20045;-73
2023/09/19 11:01:47;;;;;;;22.30;6.90;;;819.30;1561.60;;;;;;5028148;28;20478;-73
2023/09/19 11:04:24;;;;;;;24.42;7.30;;;794.10;1612.80;;;;;;5029025;28;20032;-73
2023/09/19 11:07:10;;;;;;;16.20;7.53;;;794.00;1638.40;;;;;;5023338;28;20365;-72
2023/09/19 11:09:57;;;;;;;19.02;7.75;;;793.70;1664.00;;;;;;5031386;28;20075;-72
2023/09/19 11:12:29;;;;;;;17.90;7.40;;;768.90;1664.00;;;;;;5021769;28;20021;-72
2023/09/19 11:14:55;;;;;;;17.30;7.78;;;768.90;1689.60;;;;;;5020026;28;20032;-72
2023/09/19 11:17:21;;;;;;;27.67;7.40;;;793.70;1689.60;;;;;;5031512;28;20017;-73
2023/09/19 11:22:49;;;;;;;19.15;8.63;;;794.00;1664.00;;;;;;5031793;28;20071;-74
2023/09/19 11:25:30;;;;;;;19.02;8.25;;;794.00;1689.60;;;;;;5028532;28;20025;-72
2023/09/19 11:28:18;;;;;;;22.83;7.95;;;794.50;1638.40;;;;;;5029058;28;20025;-72
2023/09/19 11:30:45;;;;;;;17.20;6.70;;;819.30;1612.80;;;;;;5029424;28;20477;-72
2023/09/19 11:33:28;;;;;;;21.92;7.35;;;819.20;1612.80;;;;;;5027270;28;20029;-72
2023/09/19 11:36:18;;;;;;;15.35;6.75;;;794.20;1612.80;;;;;;5022923;28;20117;-72
2023/09/19 11:38:50;;;;;;;20.88;7.10;;;819.20;1612.80;;;;;;5025306;28;20493;-72
2023/09/19 11:41:21;;;;;;;18.10;7.00;;;819.30;1612.80;;;;;;5022001;28;20418;-73
2023/09/19 11:43:48;;;;;;;14.35;7.13;;;794.50;1612.80;;;;;;5022942;28;20053;-74
2023/09/19 11:46:16;;;;;;;17.40;7.18;;;794.20;1638.40;;;;;;5027835;28;20017;-73
2023/09/19 11:48:46;;;;;;;12.65;6.40;;;794.20;1638.40;;;;;;5029387;28;20030;-73
2023/09/19 11:51:19;;;;;;;17.55;6.85;;;794.10;1638.40;;;;;;5013723;28;20052;-73
2023/09/19 11:53:49;;;;;;;19.30;7.03;;;794.20;1638.40;;;;;;5018053;28;20017;-72
2023/09/19 11:56:17;;;;;;;24.73;7.78;;;794.10;1638.40;;;;;;5014013;28;20397;-72
2023/09/19 11:58:49;;;;;;;15.38;5.78;;;794.10;1638.40;;;;;;5023376;28;20029;-74
2023/09/19 12:01:28;;;;;;;20.30;7.53;;;794.00;1689.60;;;;;;5026319;28;20056;-72
2023/09/19 12:03:57;;;;;;;26.48;7.72;;;793.70;1740.80;;;;;;5030279;28;20026;-72
2023/09/19 12:06:24;;;;;;;22.88;7.13;;;793.60;1792.00;;;;;;5020304;28;20029;-72
2023/09/19 12:08:53;;;;;;;32.13;8.15;;;768.90;1792.00;;;;;;5025092;28;20076;-73
2023/09/19 12:11:20;;;;;;;26.55;6.50;;;793.60;1817.60;;;;;;5023113;28;20057;-72
2023/09/19 12:13:48;;;;;;;35.38;6.88;;;793.70;1792.00;;;;;;5029356;28;20026;-73
2023/09/19 12:16:21;;;;;;;29.35;6.72;;;794.20;1792.00;;;;;;5017062;28;20060;-73
2023/09/19 12:18:50;;;;;;;21.75;6.50;;;819.20;1766.40;;;;;;5028914;28;20024;-74
2023/09/19 12:21:31;;;;;;;20.77;6.07;;;819.50;1740.80;;;;;;5006433;28;20410;-73
2023/09/19 12:24:04;;;;;;;21.92;6.25;;;819.50;1715.20;;;;;;5026276;28;20026;-73
2023/09/19 12:26:37;;;;;;;24.75;5.88;;;819.50;1689.60;;;;;;5024113;28;20037;-72
2023/09/19 12:29:04;;;;;;;19.25;5.35;;;819.60;1715.20;;;;;;5023732;28;20489;-72
2023/09/19 12:31:35;;;;;;;26.23;6.50;;;819.60;1715.20;;;;;;5022217;28;20025;-72
2023/09/19 12:34:02;;;;;;;24.25;6.28;;;819.60;1689.60;;;;;;5027480;28;20124;-73
2023/09/19 12:36:30;;;;;;;21.38;5.78;;;819.90;1664.00;;;;;;5022127;28;20109;-73